Time;durP1;ratioP1;P1;durP2;ratioP2;P2;SDS_P1;SDS_P2;PMS_P1;PMS_P2;Temp;Humidity;BMP_temperature;BMP_pressure;BME280_temperature;BME280_humidity;BME280_pressure;Samples;Min_cycle;Max_cycle;Signal;HPM_P1;HPM_P2
2023/06/21 00:19:48;;;;;;;15.45;8.05;;;19.90;99.90;;;;;;5063893;22;20057;-87
2023/06/21 00:22:21;;;;;;;15.55;9.82;;;19.80;99.90;;;;;;5037513;28;20033;-87
2023/06/21 00:24:50;;;;;;;16.25;10.23;;;19.80;99.90;;;;;;5045640;28;20040;-87
2023/06/21 00:27:19;;;;;;;18.15;9.68;;;19.80;99.90;;;;;;5046036;28;20104;-83
2023/06/21 00:29:44;;;;;;;18.33;9.80;;;19.80;99.90;;;;;;5044701;28;20119;-84
2023/06/21 00:32:10;;;;;;;22.02;8.77;;;19.80;99.90;;;;;;5045450;28;20131;-84
2023/06/21 00:34:36;;;;;;;12.65;9.55;;;19.80;99.90;;;;;;5048506;28;20036;-84
2023/06/21 00:37:04;;;;;;;23.08;9.70;;;19.90;99.90;;;;;;5041906;28;20029;-84
2023/06/21 00:39:30;;;;;;;13.15;9.27;;;19.90;99.90;;;;;;5046075;28;20037;-84
2023/06/21 00:41:56;;;;;;;15.05;10.20;;;19.90;99.90;;;;;;5045902;28;20048;-84
2023/06/21 00:44:21;;;;;;;33.25;11.38;;;19.90;99.90;;;;;;5049037;28;20033;-85
2023/06/21 00:46:48;;;;;;;15.93;10.57;;;19.90;99.90;;;;;;5047272;28;20024;-84
2023/06/21 00:49:14;;;;;;;16.15;9.48;;;19.90;99.90;;;;;;5045805;28;20082;-84
2023/06/21 00:51:41;;;;;;;14.32;9.23;;;19.90;99.90;;;;;;5046256;28;20041;-85
2023/06/21 00:54:07;;;;;;;13.20;8.75;;;19.90;99.90;;;;;;5045397;28;20044;-85
2023/06/21 00:56:33;;;;;;;12.18;9.50;;;20.00;99.90;;;;;;5026863;28;20545;-85
2023/06/21 00:58:59;;;;;;;12.13;10.80;;;20.00;99.90;;;;;;5050262;28;20108;-86
2023/06/21 01:01:26;;;;;;;14.95;11.32;;;20.00;99.90;;;;;;5047867;28;20102;-85
2023/06/21 01:03:53;;;;;;;15.60;11.00;;;20.00;99.90;;;;;;5048248;28;20029;-85
2023/06/21 01:06:34;;;;;;;16.67;10.68;;;19.90;99.90;;;;;;5046124;28;20025;-86
2023/06/21 01:09:52;;;;;;;13.73;11.50;;;19.90;99.90;;;;;;5044242;28;20029;-86
2023/06/21 01:12:48;;;;;;;16.77;11.23;;;19.90;99.90;;;;;;5031495;28;20045;-87
2023/06/21 01:15:24;;;;;;;15.05;11.82;;;19.90;99.90;;;;;;5047866;28;20033;-85
2023/06/21 01:17:52;;;;;;;16.30;12.32;;;19.90;99.90;;;;;;5045798;28;20123;-87
2023/06/21 01:20:25;;;;;;;12.93;11.32;;;19.90;99.90;;;;;;5041614;28;20493;-86
2023/06/21 01:23:22;;;;;;;22.20;13.38;;;19.80;99.90;;;;;;5047695;28;20057;-85
2023/06/21 01:26:12;;;;;;;13.50;12.05;;;19.90;99.90;;;;;;5041390;28;20037;-86
2023/06/21 01:29:08;;;;;;;13.35;11.23;;;19.90;99.90;;;;;;5039936;28;20033;-85
2023/06/21 01:31:35;;;;;;;14.88;12.20;;;19.80;99.90;;;;;;5046460;28;20048;-85
2023/06/21 01:34:03;;;;;;;13.35;11.95;;;19.80;99.90;;;;;;5048282;28;20029;-86
2023/06/21 01:36:29;;;;;;;14.35;11.27;;;19.80;99.90;;;;;;5048504;28;20025;-85
2023/06/21 01:38:59;;;;;;;10.93;9.82;;;19.80;99.90;;;;;;5044204;28;20056;-85
2023/06/21 01:41:28;;;;;;;12.77;11.25;;;19.80;99.90;;;;;;5044463;28;20131;-85
2023/06/21 01:43:55;;;;;;;14.82;11.15;;;19.80;99.90;;;;;;5049144;28;20056;-85
2023/06/21 01:46:23;;;;;;;12.38;10.35;;;19.80;99.90;;;;;;5042519;28;20036;-86
2023/06/21 01:48:49;;;;;;;11.05;9.95;;;19.70;99.90;;;;;;5047348;28;20033;-85
2023/06/21 01:51:17;;;;;;;16.55;11.90;;;19.70;99.90;;;;;;5043954;28;20071;-85
2023/06/21 01:53:43;;;;;;;12.20;9.68;;;19.70;99.90;;;;;;5044496;28;20033;-85
2023/06/21 01:56:14;;;;;;;14.75;11.00;;;19.70;99.90;;;;;;5042622;28;20529;-85
2023/06/21 01:58:40;;;;;;;13.68;10.85;;;19.70;99.90;;;;;;5043443;28;20032;-84
2023/06/21 02:01:08;;;;;;;16.73;11.43;;;19.60;99.90;;;;;;5048173;28;20047;-85
2023/06/21 02:03:34;;;;;;;14.40;11.07;;;19.60;99.90;;;;;;5044352;28;20033;-86
2023/06/21 02:06:05;;;;;;;10.40;8.90;;;19.70;99.90;;;;;;5040119;28;20033;-86
2023/06/21 02:08:32;;;;;;;17.05;10.30;;;19.60;99.90;;;;;;5045133;28;20041;-85
2023/06/21 02:11:00;;;;;;;12.00;9.98;;;19.60;99.90;;;;;;5045134;28;20397;-85
2023/06/21 02:13:26;;;;;;;15.52;10.65;;;19.60;99.90;;;;;;5044916;28;20075;-85
2023/06/21 02:15:53;;;;;;;11.18;10.02;;;19.60;99.90;;;;;;5041636;28;20025;-84
2023/06/21 02:18:21;;;;;;;10.80;9.70;;;19.60;99.90;;;;;;5042838;28;20056;-85
2023/06/21 02:20:47;;;;;;;15.02;9.77;;;19.50;99.90;;;;;;5028785;28;20060;-85
2023/06/21 02:23:13;;;;;;;14.20;9.63;;;19.50;99.90;;;;;;5053294;28;20025;-85
2023/06/21 02:25:41;;;;;;;10.68;9.57;;;19.50;99.90;;;;;;5055593;28;20111;-85
2023/06/21 02:28:06;;;;;;;12.75;9.55;;;19.40;99.90;;;;;;5051239;28;20024;-85
2023/06/21 02:30:33;;;;;;;10.70;9.48;;;19.40;99.90;;;;;;5058237;28;20024;-84
2023/06/21 02:32:59;;;;;;;14.75;10.05;;;19.40;99.90;;;;;;5052194;28;20120;-85
2023/06/21 02:35:24;;;;;;;13.02;9.40;;;19.40;99.90;;;;;;5052947;28;20124;-85
2023/06/21 02:37:50;;;;;;;11.15;8.48;;;19.30;99.90;;;;;;5049169;28;20061;-85
2023/06/21 02:40:16;;;;;;;13.15;9.85;;;19.20;99.90;;;;;;5057008;28;20036;-85
2023/06/21 02:42:41;;;;;;;11.32;8.63;;;19.30;99.90;;;;;;5048517;28;20025;-84
2023/06/21 02:45:09;;;;;;;11.60;8.90;;;19.20;99.90;;;;;;5056331;28;20070;-85
2023/06/21 02:47:35;;;;;;;10.55;7.82;;;19.10;99.90;;;;;;5051523;28;20044;-84
2023/06/21 02:50:03;;;;;;;9.63;8.68;;;19.10;99.90;;;;;;5055313;28;20475;-85
2023/06/21 02:52:29;;;;;;;12.27;8.73;;;19.10;99.90;;;;;;5050138;28;20053;-85
2023/06/21 02:54:54;;;;;;;13.48;9.30;;;19.10;99.90;;;;;;5058457;28;20024;-84
2023/06/21 02:57:20;;;;;;;9.27;8.38;;;19.10;99.90;;;;;;5052591;28;20108;-85
2023/06/21 02:59:48;;;;;;;10.02;8.82;;;19.00;99.90;;;;;;5059217;28;20261;-85
2023/06/21 03:02:13;;;;;;;10.95;9.05;;;18.90;99.90;;;;;;5062765;28;20413;-85
2023/06/21 03:04:39;;;;;;;14.98;8.38;;;18.90;99.90;;;;;;5064473;28;20020;-85
2023/06/21 03:07:05;;;;;;;8.82;7.90;;;18.80;99.90;;;;;;5055189;28;20091;-85
2023/06/21 03:09:31;;;;;;;13.23;9.32;;;18.90;99.90;;;;;;5066650;28;20028;-86
2023/06/21 03:11:57;;;;;;;12.15;8.60;;;18.80;99.90;;;;;;5061645;28;20587;-85
2023/06/21 03:14:23;;;;;;;8.68;7.88;;;18.80;99.90;;;;;;5062635;28;20033;-84
2023/06/21 03:16:49;;;;;;;8.80;7.90;;;18.80;99.90;;;;;;5056638;28;20040;-85
2023/06/21 03:19:15;;;;;;;11.40;8.95;;;18.80;99.90;;;;;;5056318;28;20045;-85
2023/06/21 03:21:40;;;;;;;9.90;7.72;;;18.80;99.90;;;;;;5043801;28;20529;-85
2023/06/21 03:24:07;;;;;;;11.15;8.45;;;18.80;99.90;;;;;;5040534;28;20021;-85
2023/06/21 03:26:35;;;;;;;11.68;8.48;;;18.90;99.90;;;;;;5047239;28;20371;-87
2023/06/21 03:29:03;;;;;;;9.88;8.48;;;18.90;99.90;;;;;;5049301;28;20029;-83
2023/06/21 03:31:29;;;;;;;13.88;8.18;;;19.00;99.90;;;;;;5047840;28;20056;-86
2023/06/21 03:34:14;;;;;;;11.23;8.45;;;19.10;99.90;;;;;;5040523;28;20057;-87
2023/06/21 03:36:39;;;;;;;13.40;8.93;;;19.10;99.90;;;;;;5048340;28;20462;-88
2023/06/21 03:39:06;;;;;;;13.05;8.07;;;19.20;99.90;;;;;;5058272;28;20025;-87
2023/06/21 03:41:31;;;;;;;13.07;8.65;;;19.20;99.90;;;;;;5057145;28;20037;-87
2023/06/21 03:43:57;;;;;;;15.18;10.20;;;19.20;99.90;;;;;;5044491;28;20409;-88
2023/06/21 03:46:23;;;;;;;10.48;8.20;;;19.30;99.90;;;;;;5044533;28;20566;-87
2023/06/21 03:48:51;;;;;;;16.55;8.55;;;19.30;99.90;;;;;;5045266;28;20029;-88
2023/06/21 03:51:17;;;;;;;17.27;8.82;;;19.30;99.90;;;;;;5059084;28;20024;-87
2023/06/21 03:53:42;;;;;;;13.27;9.80;;;19.30;99.90;;;;;;5045658;28;20418;-86
2023/06/21 03:56:08;;;;;;;14.82;10.15;;;19.40;99.90;;;;;;5052050;28;20034;-88
2023/06/21 03:58:34;;;;;;;13.57;9.25;;;19.30;99.90;;;;;;5050028;28;20057;-85
2023/06/21 04:00:59;;;;;;;13.20;8.95;;;19.30;99.90;;;;;;5049106;28;20301;-87
2023/06/21 04:03:26;;;;;;;11.70;9.13;;;19.30;99.90;;;;;;5051729;28;20032;-87
2023/06/21 04:05:51;;;;;;;11.55;8.73;;;19.40;99.90;;;;;;5049141;28;20033;-87
2023/06/21 04:08:17;;;;;;;10.90;8.80;;;19.40;99.90;;;;;;5042797;28;20025;-87
2023/06/21 04:10:42;;;;;;;14.02;9.27;;;19.40;99.90;;;;;;5048181;28;20728;-89
2023/06/21 04:13:09;;;;;;;11.05;9.15;;;19.50;99.90;;;;;;5049834;28;20029;-86
2023/06/21 04:15:35;;;;;;;12.18;8.88;;;19.50;99.90;;;;;;5048742;28;20017;-90
2023/06/21 04:18:01;;;;;;;15.10;9.63;;;19.60;99.90;;;;;;5047597;28;20151;-86
2023/06/21 04:20:26;;;;;;;17.05;9.60;;;19.60;99.90;;;;;;5046714;28;20132;-89
2023/06/21 04:22:52;;;;;;;21.10;11.45;;;19.60;99.90;;;;;;5049443;28;20017;-88
2023/06/21 04:25:18;;;;;;;14.45;9.48;;;19.60;99.90;;;;;;5049083;28;20025;-86
2023/06/21 04:27:54;;;;;;;13.75;10.35;;;19.70;99.90;;;;;;5044129;28;20080;-86
2023/06/21 04:30:19;;;;;;;;;;;19.70;99.90;;;;;;5045798;28;20036;-89
2023/06/21 04:32:48;;;;;;;15.40;11.02;;;19.80;99.90;;;;;;5051608;28;19916;-89
2023/06/21 04:35:17;;;;;;;27.40;11.18;;;19.80;99.90;;;;;;5047905;28;20040;-88
2023/06/21 04:37:49;;;;;;;15.02;10.13;;;19.80;99.90;;;;;;5055409;28;20056;-90
2023/06/21 04:40:17;;;;;;;13.70;10.27;;;19.80;99.90;;;;;;5045110;28;20045;-89
2023/06/21 04:42:45;;;;;;;11.50;9.48;;;19.80;99.90;;;;;;5034173;28;20029;-90
2023/06/21 04:45:14;;;;;;;14.90;10.77;;;19.90;99.90;;;;;;5054968;28;20040;-89
2023/06/21 04:47:42;;;;;;;10.50;8.93;;;19.90;99.90;;;;;;5055322;28;20035;-89
2023/06/21 04:50:10;;;;;;;18.40;10.25;;;20.00;99.90;;;;;;5049156;28;20424;-89
2023/06/21 04:52:37;;;;;;;14.13;10.07;;;19.90;99.90;;;;;;5049915;28;20397;-89
2023/06/21 04:55:07;;;;;;;12.50;10.27;;;20.00;99.90;;;;;;5040494;28;20493;-89
2023/06/21 04:57:33;;;;;;;13.73;9.85;;;20.00;99.90;;;;;;5043007;28;20039;-89
2023/06/21 05:00:02;;;;;;;15.45;10.10;;;20.00;99.90;;;;;;5051776;28;20044;-90
2023/06/21 05:02:28;;;;;;;12.43;9.30;;;20.00;99.90;;;;;;5046115;28;20644;-90
2023/06/21 05:04:53;;;;;;;11.38;9.13;;;20.00;99.90;;;;;;5049495;28;20127;-89
2023/06/21 05:07:19;;;;;;;13.27;9.88;;;20.00;99.90;;;;;;5047255;28;20028;-89
2023/06/21 05:09:44;;;;;;;14.75;9.90;;;20.00;99.90;;;;;;5044603;28;20036;-90
2023/06/21 05:12:10;;;;;;;11.73;9.68;;;20.00;99.90;;;;;;5040496;28;20029;-89
2023/06/21 05:14:35;;;;;;;15.43;10.68;;;20.00;99.90;;;;;;5043854;28;20194;-89
2023/06/21 05:17:01;;;;;;;18.05;10.07;;;20.00;99.90;;;;;;5045179;28;20040;-89
2023/06/21 05:19:26;;;;;;;13.25;10.15;;;20.10;99.90;;;;;;5045825;28;20162;-90
2023/06/21 05:21:52;;;;;;;13.20;10.88;;;20.10;99.90;;;;;;5038551;28;20043;-87
2023/06/21 05:24:18;;;;;;;15.95;10.57;;;20.20;99.90;;;;;;5043613;28;20191;-90
2023/06/21 05:26:44;;;;;;;15.82;10.43;;;20.20;99.90;;;;;;5038959;28;20092;-90
2023/06/21 05:29:13;;;;;;;12.73;10.90;;;20.30;99.90;;;;;;5043228;28;20025;-89
2023/06/21 05:31:42;;;;;;;19.00;9.68;;;20.40;99.90;;;;;;5035835;28;20025;-88
2023/06/21 05:34:08;;;;;;;15.32;9.88;;;20.50;99.90;;;;;;5053701;28;20446;-89
2023/06/21 05:36:33;;;;;;;11.07;9.00;;;20.50;99.90;;;;;;5032487;28;20049;-88
2023/06/21 05:38:59;;;;;;;11.88;10.02;;;20.60;99.90;;;;;;5056385;28;20466;-90
2023/06/21 05:41:25;;;;;;;13.30;10.73;;;20.50;99.90;;;;;;5043757;28;20378;-88
2023/06/21 05:43:51;;;;;;;17.83;9.52;;;20.50;99.90;;;;;;5045159;28;20037;-88
2023/06/21 05:46:17;;;;;;;20.98;9.27;;;20.50;99.90;;;;;;5036802;28;20029;-88
2023/06/21 05:48:43;;;;;;;11.65;7.85;;;20.50;99.90;;;;;;5042161;28;20090;-88
2023/06/21 05:51:08;;;;;;;12.85;7.55;;;20.50;99.90;;;;;;5026514;28;20021;-87
2023/06/21 05:53:34;;;;;;;10.85;8.27;;;20.50;99.90;;;;;;5046352;28;20493;-88
2023/06/21 05:55:59;;;;;;;18.30;10.80;;;20.50;99.90;;;;;;5036641;28;20101;-88
2023/06/21 05:58:25;;;;;;;10.68;8.73;;;20.50;99.90;;;;;;5042707;28;20428;-88
2023/06/21 06:00:51;;;;;;;13.45;9.82;;;20.50;99.90;;;;;;5060219;28;20055;-88
2023/06/21 06:03:19;;;;;;;19.55;10.27;;;20.50;99.90;;;;;;5057243;28;20025;-85
2023/06/21 06:05:46;;;;;;;22.27;9.07;;;20.50;99.90;;;;;;5033979;28;20061;-87
2023/06/21 06:08:11;;;;;;;12.50;9.45;;;20.50;99.90;;;;;;5051826;28;20500;-87
2023/06/21 06:10:37;;;;;;;20.52;11.32;;;20.50;99.90;;;;;;5051328;28;20051;-88
2023/06/21 06:13:02;;;;;;;18.88;9.00;;;20.60;99.90;;;;;;5045206;28;20025;-87
2023/06/21 06:15:28;;;;;;;17.70;9.40;;;20.60;99.90;;;;;;5027323;28;20097;-87
2023/06/21 06:17:54;;;;;;;11.50;9.20;;;20.60;99.90;;;;;;5044150;28;20047;-86
2023/06/21 06:20:19;;;;;;;12.70;9.35;;;20.60;99.90;;;;;;5033970;28;20499;-87
2023/06/21 06:22:46;;;;;;;11.75;9.18;;;20.60;99.90;;;;;;5061953;28;20069;-87
2023/06/21 06:25:15;;;;;;;15.15;9.55;;;20.70;99.90;;;;;;5038914;28;20044;-86
2023/06/21 06:27:40;;;;;;;23.88;11.30;;;20.70;99.90;;;;;;5037937;28;20505;-87
2023/06/21 06:30:07;;;;;;;17.52;12.18;;;20.80;99.90;;;;;;5043838;28;20029;-86
2023/06/21 06:32:33;;;;;;;18.17;10.65;;;20.80;99.90;;;;;;5042762;28;20029;-85
2023/06/21 06:34:58;;;;;;;19.02;11.68;;;20.90;99.90;;;;;;5045769;28;20074;-87
2023/06/21 06:37:24;;;;;;;17.92;10.60;;;20.90;99.90;;;;;;5061697;28;20086;-87
2023/06/21 06:39:52;;;;;;;15.90;11.85;;;20.90;99.90;;;;;;5045020;28;20040;-87
2023/06/21 06:42:18;;;;;;;22.90;12.88;;;20.90;99.90;;;;;;5042475;28;20029;-87
2023/06/21 06:44:43;;;;;;;19.40;11.55;;;21.00;99.90;;;;;;5039442;28;20754;-86
2023/06/21 06:47:09;;;;;;;13.13;10.95;;;21.00;99.90;;;;;;5043144;28;20026;-86
2023/06/21 06:49:35;;;;;;;16.27;10.45;;;21.00;99.90;;;;;;5037304;28;20021;-86
2023/06/21 06:52:00;;;;;;;13.52;10.68;;;20.90;99.90;;;;;;5044835;28;20024;-86
2023/06/21 06:54:26;;;;;;;14.15;10.55;;;20.90;99.90;;;;;;5044967;28;20112;-85
2023/06/21 06:56:51;;;;;;;13.35;11.35;;;20.90;99.90;;;;;;5052458;28;20382;-85
2023/06/21 06:59:17;;;;;;;22.80;13.27;;;20.90;99.90;;;;;;5052429;28;20047;-86
2023/06/21 07:01:42;;;;;;;26.15;12.90;;;21.00;99.90;;;;;;5052435;28;20056;-85
2023/06/21 07:04:08;;;;;;;22.25;13.13;;;21.00;99.90;;;;;;5057022;28;20028;-86
2023/06/21 07:06:33;;;;;;;13.95;10.32;;;21.00;99.90;;;;;;5010221;28;20485;-85
2023/06/21 07:09:00;;;;;;;26.45;13.02;;;21.00;99.90;;;;;;5033225;28;20401;-85
2023/06/21 07:11:25;;;;;;;10.75;9.57;;;21.00;99.90;;;;;;5056392;28;20108;-85
2023/06/21 07:13:51;;;;;;;15.52;10.63;;;21.10;99.90;;;;;;5060283;28;20104;-85
2023/06/21 07:16:16;;;;;;;31.15;13.88;;;21.00;99.90;;;;;;5046502;28;20113;-85
2023/06/21 07:18:42;;;;;;;20.38;13.35;;;21.10;99.90;;;;;;5059060;28;20335;-86
2023/06/21 07:21:08;;;;;;;16.48;13.02;;;21.10;99.90;;;;;;5047018;28;20472;-85
2023/06/21 07:23:33;;;;;;;19.88;11.20;;;21.20;99.90;;;;;;5026016;28;20451;-85
2023/06/21 07:25:59;;;;;;;17.20;9.85;;;21.20;99.90;;;;;;5028090;28;20987;-87
2023/06/21 07:28:25;;;;;;;15.70;8.38;;;21.20;99.90;;;;;;5050957;28;20041;-88
2023/06/21 07:30:50;;;;;;;12.90;7.60;;;21.30;99.90;;;;;;5051273;28;20025;-85
2023/06/21 07:33:16;;;;;;;8.95;7.63;;;21.40;99.90;;;;;;5050546;28;20028;-85
2023/06/21 07:35:42;;;;;;;14.63;7.95;;;21.40;99.90;;;;;;5055495;28;20032;-85
2023/06/21 07:38:08;;;;;;;11.05;7.13;;;21.40;99.90;;;;;;5053468;28;20024;-85
2023/06/21 07:40:34;;;;;;;8.68;6.65;;;21.50;99.90;;;;;;5048861;28;20067;-88
2023/06/21 07:42:59;;;;;;;8.55;7.07;;;21.50;99.90;;;;;;5020913;28;20021;-86
2023/06/21 07:45:25;;;;;;;10.77;6.82;;;21.60;99.90;;;;;;5033548;28;20029;-85
2023/06/21 07:47:50;;;;;;;7.95;6.90;;;21.70;99.90;;;;;;5043467;28;20507;-86
2023/06/21 07:50:19;;;;;;;7.15;6.45;;;21.70;99.90;;;;;;5043683;28;20028;-85
2023/06/21 07:52:45;;;;;;;10.38;7.85;;;21.80;99.90;;;;;;5046041;28;20579;-84
2023/06/21 07:55:11;;;;;;;8.07;7.13;;;21.80;99.90;;;;;;5057274;28;20032;-84
2023/06/21 07:57:38;;;;;;;8.63;7.03;;;21.80;99.90;;;;;;5056068;28;20024;-84
2023/06/21 08:00:11;;;;;;;11.15;6.72;;;21.90;99.90;;;;;;5048224;28;20044;-84
2023/06/21 08:02:37;;;;;;;11.73;6.32;;;21.90;99.90;;;;;;5045594;28;20037;-84
2023/06/21 08:05:04;;;;;;;8.45;6.78;;;21.90;99.90;;;;;;5056166;28;20029;-84
2023/06/21 08:07:30;;;;;;;6.57;5.97;;;21.90;99.90;;;;;;5039570;28;20030;-84
2023/06/21 08:09:56;;;;;;;8.82;6.72;;;22.00;99.90;;;;;;5046837;28;20044;-84
2023/06/21 08:12:22;;;;;;;10.77;6.53;;;22.10;99.90;;;;;;5048038;28;20194;-85
2023/06/21 08:14:47;;;;;;;10.55;6.43;;;22.20;99.90;;;;;;5053215;28;20429;-85
2023/06/21 08:17:13;;;;;;;11.32;6.45;;;22.30;99.90;;;;;;5054987;28;20036;-85
2023/06/21 08:19:38;;;;;;;15.27;7.20;;;22.30;99.90;;;;;;5057150;28;20460;-85
2023/06/21 08:22:04;;;;;;;12.75;7.00;;;22.40;99.90;;;;;;5048762;28;20482;-85
2023/06/21 08:24:33;;;;;;;8.38;5.40;;;22.40;99.90;;;;;;5057907;28;20120;-85
2023/06/21 08:26:58;;;;;;;7.68;6.32;;;22.40;99.90;;;;;;5052450;28;20385;-85
2023/06/21 08:29:24;;;;;;;10.35;6.95;;;22.40;99.90;;;;;;5045866;28;20028;-85
2023/06/21 08:31:49;;;;;;;11.23;5.72;;;22.30;99.90;;;;;;5053523;28;20030;-87
2023/06/21 08:34:15;;;;;;;7.07;6.05;;;22.30;99.90;;;;;;5055821;28;20036;-85
2023/06/21 08:36:41;;;;;;;14.77;6.85;;;22.30;99.90;;;;;;5069166;28;20044;-87
2023/06/21 08:39:07;;;;;;;12.05;6.35;;;22.30;99.90;;;;;;5052015;28;20166;-85
2023/06/21 08:41:35;;;;;;;9.23;6.20;;;22.30;99.90;;;;;;5049830;28;20124;-86
2023/06/21 08:44:01;;;;;;;8.15;6.35;;;22.30;99.90;;;;;;5058407;28;20063;-83
2023/06/21 08:46:27;;;;;;;8.18;6.30;;;22.30;99.90;;;;;;5054748;28;20064;-84
2023/06/21 08:49:00;;;;;;;7.57;6.13;;;22.40;99.90;;;;;;5055456;28;20543;-85
2023/06/21 08:51:26;;;;;;;9.07;6.28;;;22.40;99.90;;;;;;5057485;28;20032;-84
2023/06/21 08:54:01;;;;;;;6.82;6.13;;;22.60;99.90;;;;;;5053257;28;20487;-85
2023/06/21 08:56:31;;;;;;;6.20;5.60;;;22.60;99.90;;;;;;5053488;28;20433;-85
2023/06/21 08:59:05;;;;;;;8.52;6.18;;;22.70;99.90;;;;;;5054647;28;20117;-87
2023/06/21 09:01:38;;;;;;;13.30;6.45;;;22.80;99.90;;;;;;5040324;28;20091;-86
2023/06/21 09:04:06;;;;;;;7.25;5.38;;;22.90;99.90;;;;;;5043702;28;20497;-85
2023/06/21 09:06:32;;;;;;;7.82;6.18;;;23.10;99.90;;;;;;5037753;28;20463;-86
2023/06/21 09:08:58;;;;;;;10.05;7.63;;;23.00;99.90;;;;;;5037054;28;20048;-84
2023/06/21 09:11:24;;;;;;;9.30;7.55;;;23.10;99.90;;;;;;5037105;28;20029;-85
2023/06/21 09:13:52;;;;;;;9.57;6.75;;;23.10;99.90;;;;;;5045553;28;20519;-85
2023/06/21 09:16:19;;;;;;;8.30;6.78;;;23.00;99.90;;;;;;5049807;28;20117;-85
2023/06/21 09:18:46;;;;;;;6.55;5.93;;;22.90;99.90;;;;;;5054535;28;20045;-85
2023/06/21 09:21:12;;;;;;;11.50;6.78;;;22.90;99.90;;;;;;5052450;28;20063;-85
2023/06/21 09:23:40;;;;;;;7.10;6.40;;;22.90;99.90;;;;;;5065000;28;20029;-85
2023/06/21 09:26:08;;;;;;;7.10;6.40;;;22.90;99.90;;;;;;5028589;28;20036;-86
2023/06/21 09:28:33;;;;;;;9.10;6.80;;;22.90;99.90;;;;;;5050913;28;20033;-86
2023/06/21 09:30:59;;;;;;;6.95;6.28;;;22.90;99.90;;;;;;5059508;28;20032;-85
2023/06/21 09:33:25;;;;;;;7.93;6.40;;;23.00;99.90;;;;;;5051178;28;20067;-85
2023/06/21 09:35:51;;;;;;;6.82;5.93;;;23.10;99.90;;;;;;5043482;28;20020;-85
2023/06/21 09:38:21;;;;;;;9.40;6.35;;;23.10;99.90;;;;;;5044879;28;20032;-88
2023/06/21 09:40:47;;;;;;;11.35;7.43;;;23.20;99.90;;;;;;5057478;28;20044;-84
2023/06/21 09:43:12;;;;;;;10.32;7.32;;;23.30;99.90;;;;;;5050177;28;20077;-85
2023/06/21 09:45:38;;;;;;;9.35;6.78;;;23.30;99.90;;;;;;5052412;28;20025;-87
2023/06/21 09:48:04;;;;;;;8.18;7.25;;;23.30;99.90;;;;;;5054842;28;20137;-86
2023/06/21 09:50:36;;;;;;;7.40;6.60;;;23.30;99.90;;;;;;5054382;28;20055;-85
2023/06/21 09:53:01;;;;;;;9.02;5.82;;;23.30;99.90;;;;;;5051668;28;20025;-85
2023/06/21 09:55:29;;;;;;;11.52;7.22;;;23.30;99.90;;;;;;5050761;28;20102;-86
2023/06/21 09:57:57;;;;;;;8.68;6.60;;;23.40;99.90;;;;;;5049198;28;20042;-86
2023/06/21 10:00:33;;;;;;;6.80;5.60;;;23.40;99.90;;;;;;5042899;28;20041;-87
2023/06/21 10:02:59;;;;;;;9.00;6.72;;;23.40;99.90;;;;;;5053118;28;20655;-85
2023/06/21 10:05:25;;;;;;;10.05;6.97;;;23.40;99.90;;;;;;5039694;28;20041;-87
2023/06/21 10:07:50;;;;;;;8.88;6.60;;;23.50;99.90;;;;;;5051961;28;20048;-86
2023/06/21 10:10:18;;;;;;;7.50;6.43;;;23.60;99.90;;;;;;5047943;28;20097;-86
2023/06/21 10:12:54;;;;;;;8.93;6.38;;;23.70;99.90;;;;;;5049327;28;20032;-87
2023/06/21 10:15:19;;;;;;;11.15;6.45;;;23.70;99.90;;;;;;5036812;28;20049;-87
2023/06/21 10:17:48;;;;;;;9.63;7.15;;;23.80;99.90;;;;;;5028675;28;20111;-87
2023/06/21 10:20:14;;;;;;;9.07;7.30;;;23.80;99.90;;;;;;5050574;28;20053;-86
2023/06/21 10:22:43;;;;;;;8.30;6.53;;;23.70;99.90;;;;;;5052072;28;20029;-86
2023/06/21 10:25:10;;;;;;;8.77;6.40;;;23.70;99.90;;;;;;5047816;28;20028;-88
2023/06/21 10:27:38;;;;;;;7.57;6.50;;;23.70;99.90;;;;;;5050171;28;20068;-87
2023/06/21 10:30:04;;;;;;;13.35;6.82;;;23.70;99.90;;;;;;5038254;28;20025;-89
2023/06/21 10:32:34;;;;;;;8.88;6.32;;;23.70;99.90;;;;;;5050995;28;20059;-88
2023/06/21 10:35:17;;;;;;;8.77;6.60;;;23.80;99.90;;;;;;5045491;28;20033;-87
2023/06/21 10:38:11;;;;;;;8.15;7.00;;;23.80;99.90;;;;;;5048687;28;20035;-87
2023/06/21 10:40:38;;;;;;;9.00;6.75;;;23.80;99.90;;;;;;5044344;28;20036;-87
2023/06/21 10:43:04;;;;;;;7.07;6.20;;;23.80;99.90;;;;;;5045802;28;20033;-87
2023/06/21 10:45:36;;;;;;;8.07;6.03;;;23.80;99.90;;;;;;5038155;28;20561;-87
2023/06/21 10:48:03;;;;;;;8.07;6.50;;;23.80;99.90;;;;;;5047345;28;20032;-88
2023/06/21 10:50:28;;;;;;;8.10;6.70;;;23.70;99.90;;;;;;5035062;28;20033;-87
2023/06/21 10:52:55;;;;;;;10.52;6.38;;;23.70;99.90;;;;;;5045108;28;20470;-88
2023/06/21 10:55:22;;;;;;;8.02;6.20;;;23.70;99.90;;;;;;5039041;28;20040;-87
2023/06/21 10:57:53;;;;;;;16.70;6.97;;;23.80;99.90;;;;;;5045738;28;20536;-88
2023/06/21 11:00:19;;;;;;;8.57;6.38;;;23.80;99.90;;;;;;5049446;28;20037;-88
2023/06/21 11:02:45;;;;;;;9.85;6.80;;;24.00;99.90;;;;;;5055320;28;20036;-88
2023/06/21 11:05:24;;;;;;;13.50;7.40;;;24.00;99.90;;;;;;5045460;28;20044;-88
2023/06/21 11:07:58;;;;;;;10.48;7.00;;;24.10;99.90;;;;;;5038663;28;20032;-87
2023/06/21 11:10:40;;;;;;;8.50;6.82;;;24.10;99.90;;;;;;5040622;28;20695;-88
2023/06/21 11:13:07;;;;;;;11.88;6.93;;;24.00;99.90;;;;;;5046190;28;20033;-88
2023/06/21 11:15:33;;;;;;;9.00;6.97;;;24.00;99.90;;;;;;5052437;28;20515;-88
2023/06/21 11:18:07;;;;;;;7.40;6.68;;;23.90;99.90;;;;;;5056305;28;20764;-88
2023/06/21 11:20:50;;;;;;;7.65;6.85;;;23.90;99.90;;;;;;5043604;28;20116;-88
2023/06/21 11:23:19;;;;;;;8.13;6.70;;;23.90;99.90;;;;;;5058069;28;20119;-88
2023/06/21 11:26:12;;;;;;;8.50;7.57;;;23.90;99.90;;;;;;5038389;28;20493;-88
2023/06/21 11:28:46;;;;;;;9.65;7.65;;;23.80;99.90;;;;;;5033873;28;20394;-89
2023/06/21 11:31:14;;;;;;;8.57;7.05;;;23.80;99.90;;;;;;5044207;28;20398;-88
2023/06/21 11:33:45;;;;;;;10.07;6.07;;;23.90;99.90;;;;;;5039255;28;20027;-88
2023/06/21 11:36:11;;;;;;;8.90;6.75;;;23.90;99.90;;;;;;5035227;28;20051;-88
2023/06/21 11:38:37;;;;;;;8.60;7.07;;;23.90;99.90;;;;;;5049211;28;20475;-88
2023/06/21 11:41:41;;;;;;;8.48;6.60;;;23.80;99.90;;;;;;5026415;28;20056;-88
2023/06/21 11:44:08;;;;;;;8.35;6.38;;;23.90;99.90;;;;;;5047938;28;20037;-88
2023/06/21 11:46:34;;;;;;;7.43;6.63;;;23.80;99.90;;;;;;5044775;28;20084;-88
2023/06/21 11:49:00;;;;;;;11.10;7.28;;;23.90;99.90;;;;;;5048475;28;20033;-89
2023/06/21 11:51:30;;;;;;;7.10;6.40;;;23.90;99.90;;;;;;5045269;28;20111;-88
2023/06/21 11:53:55;;;;;;;7.80;6.88;;;24.00;99.90;;;;;;5046327;28;20098;-88
2023/06/21 11:56:22;;;;;;;7.97;7.13;;;24.00;99.90;;;;;;5055669;28;20025;-88
2023/06/21 11:58:50;;;;;;;11.80;6.78;;;24.00;99.90;;;;;;5042956;28;20055;-88
2023/06/21 12:01:16;;;;;;;7.65;6.85;;;24.10;99.90;;;;;;5037610;28;20124;-88
2023/06/21 12:03:41;;;;;;;6.88;6.07;;;24.20;99.90;;;;;;5045884;28;20148;-88
2023/06/21 12:06:07;;;;;;;7.05;6.15;;;24.30;99.90;;;;;;5032164;28;20041;-88
2023/06/21 12:08:36;;;;;;;11.93;6.63;;;24.30;99.90;;;;;;5039025;28;20538;-88
2023/06/21 12:11:10;;;;;;;10.02;6.80;;;24.40;99.90;;;;;;5042300;28;20048;-88
2023/06/21 12:13:37;;;;;;;7.57;6.65;;;24.50;99.90;;;;;;5046701;28;20036;-88
2023/06/21 12:16:05;;;;;;;9.73;6.70;;;24.50;99.90;;;;;;5055672;28;20064;-89
2023/06/21 12:18:36;;;;;;;9.02;7.35;;;24.60;99.90;;;;;;5049810;28;20059;-87
2023/06/21 12:21:03;;;;;;;7.40;6.60;;;24.70;99.90;;;;;;5048331;28;20044;-89
2023/06/21 12:23:30;;;;;;;11.52;6.93;;;24.70;99.90;;;;;;5045968;28;20029;-88
2023/06/21 12:26:01;;;;;;;11.23;7.05;;;24.70;99.90;;;;;;5040794;28;20040;-86
2023/06/21 12:28:27;;;;;;;7.30;6.55;;;24.60;99.90;;;;;;5043221;28;20033;-87
2023/06/21 12:31:03;;;;;;;7.05;6.35;;;24.50;99.90;;;;;;5048517;28;20024;-87
2023/06/21 12:33:37;;;;;;;8.57;6.72;;;24.40;99.90;;;;;;5051808;28;20021;-86
2023/06/21 12:36:24;;;;;;;11.45;6.68;;;24.40;99.90;;;;;;5049665;28;20033;-87
2023/06/21 12:38:50;;;;;;;9.57;6.40;;;24.50;99.90;;;;;;5050285;28;20036;-87
2023/06/21 12:41:18;;;;;;;9.85;7.35;;;24.50;99.90;;;;;;5051466;28;20053;-88
2023/06/21 12:43:46;;;;;;;7.28;6.50;;;24.50;99.90;;;;;;5053618;28;20497;-87
2023/06/21 12:46:12;;;;;;;8.00;6.75;;;24.50;99.90;;;;;;5057267;28;20382;-87
2023/06/21 12:49:07;;;;;;;10.13;6.80;;;24.50;99.90;;;;;;5054661;28;20372;-86
2023/06/21 12:51:36;;;;;;;8.15;6.65;;;24.60;99.90;;;;;;5018857;28;20041;-87
2023/06/21 12:54:09;;;;;;;7.47;6.68;;;24.60;99.90;;;;;;5052507;28;20470;-88
2023/06/21 12:56:37;;;;;;;9.95;6.70;;;24.60;99.90;;;;;;5021540;28;20041;-89
2023/06/21 12:59:03;;;;;;;9.00;6.55;;;24.70;99.90;;;;;;5042210;28;20033;-88
2023/06/21 13:01:31;;;;;;;6.40;5.68;;;24.70;99.90;;;;;;5045667;28;20542;-85